Terminal Aerodrome Forecast
Issued by NWS Wilmington, NC

Home | Current Version | Previous Version | Text Only | Print | Product List | Glossary On
Versions: 1 2 3 4 5 6 7 8 9 10 11 12 13 14 15 16 17 18 19 20 21
000
FTUS42 KILM 292326
TAFILM
TAF
KILM 292326Z 3000/3024 18010KT P6SM FEW070 FEW250
     FM300300 21004KT P6SM FEW250
     FM301300 24007KT P6SM FEW030 SCT250
     FM301800 20014G22KT P6SM VCSH SCT050 SCT250=

USA.gov is the U.S. government's official web portal to all federal, state and local government web resources and services.